createdAt,value
2023-01-28T00:01:17.105Z,9.27
2023-01-28T00:03:45.009Z,8.37
2023-01-28T00:06:16.074Z,8.30
2023-01-28T00:08:43.408Z,7.90
2023-01-28T00:11:13.870Z,9.13
2023-01-28T00:13:42.204Z,8.60
2023-01-28T00:16:10.165Z,8.80
2023-01-28T00:18:38.110Z,8.53
2023-01-28T00:21:12.798Z,8.83
2023-01-28T00:23:43.115Z,9.37
2023-01-28T00:26:15.870Z,9.30
2023-01-28T00:28:43.347Z,9.30
2023-01-28T00:31:19.235Z,8.93
2023-01-28T00:33:48.629Z,8.63
2023-01-28T00:36:17.119Z,8.57
2023-01-28T00:38:50.616Z,9.47
2023-01-28T00:41:23.737Z,9.47
2023-01-28T00:43:51.946Z,9.53
2023-01-28T00:46:20.135Z,9.53
2023-01-28T00:48:47.735Z,9.30
2023-01-28T00:51:17.500Z,10.07
2023-01-28T00:53:45.028Z,8.53
2023-01-28T00:56:19.513Z,9.00
2023-01-28T00:58:47.222Z,9.50
2023-01-28T01:01:22.071Z,8.87
2023-01-28T01:03:57.473Z,8.70
2023-01-28T01:06:25.791Z,8.50
2023-01-28T01:08:52.830Z,8.20
2023-01-28T01:11:20.304Z,8.47
2023-01-28T01:14:00.232Z,8.33
2023-01-28T01:16:32.152Z,8.87
2023-01-28T01:19:00.357Z,9.07
2023-01-28T01:21:31.353Z,8.73
2023-01-28T01:23:58.698Z,8.77
2023-01-28T01:26:27.671Z,8.17
2023-01-28T01:28:54.739Z,9.63
2023-01-28T01:31:22.925Z,9.33
2023-01-28T01:33:52.664Z,8.73
2023-01-28T01:36:21.881Z,8.70
2023-01-28T01:38:54.268Z,9.73
2023-01-28T01:41:32.803Z,9.07
2023-01-28T01:44:05.181Z,9.30
2023-01-28T01:46:49.313Z,9.60
2023-01-28T01:49:26.887Z,10.03
2023-01-28T01:52:28.407Z,8.97
2023-01-28T01:54:59.339Z,9.30
2023-01-28T01:57:33.648Z,9.30
2023-01-28T02:00:06.400Z,9.27
2023-01-28T02:02:42.027Z,9.00
2023-01-28T02:05:10.891Z,9.60
2023-01-28T02:07:38.773Z,10.23
2023-01-28T02:10:07.976Z,9.27
2023-01-28T02:12:43.329Z,9.37
2023-01-28T02:15:16.809Z,10.80
2023-01-28T02:17:44.786Z,9.50
2023-01-28T02:20:25.817Z,9.57
2023-01-28T02:23:33.292Z,9.37
2023-01-28T02:26:12.214Z,8.47
2023-01-28T02:28:48.907Z,9.50
2023-01-28T02:31:34.545Z,10.33
2023-01-28T02:34:24.873Z,9.37
2023-01-28T02:37:14.982Z,9.20
2023-01-28T02:40:06.114Z,9.40
2023-01-28T02:42:37.551Z,9.30
2023-01-28T02:45:17.702Z,9.20
2023-01-28T02:48:00.007Z,9.60
2023-01-28T02:50:42.560Z,9.30
2023-01-28T02:53:41.389Z,9.40
2023-01-28T02:56:30.891Z,8.90
2023-01-28T02:59:28.521Z,9.00
2023-01-28T03:02:26.413Z,9.20
2023-01-28T03:05:02.127Z,8.73
2023-01-28T03:07:33.481Z,9.97
2023-01-28T03:10:08.958Z,9.33
2023-01-28T03:13:00.774Z,8.97
2023-01-28T03:16:00.231Z,9.67
2023-01-28T03:19:08.947Z,9.67
2023-01-28T03:22:03.554Z,9.50
2023-01-28T03:25:04.710Z,10.30
2023-01-28T03:28:07.700Z,10.03
2023-01-28T03:31:23.561Z,9.57
2023-01-28T03:34:11.650Z,10.33
2023-01-28T03:36:49.493Z,10.23
2023-01-28T03:39:18.963Z,10.23
2023-01-28T03:42:09.872Z,10.00
2023-01-28T03:44:52.837Z,10.30
2023-01-28T03:47:27.480Z,10.10
2023-01-28T03:49:56.859Z,10.27
2023-01-28T03:52:31.070Z,11.33
2023-01-28T03:54:58.392Z,10.50
2023-01-28T03:57:28.359Z,11.03
2023-01-28T03:59:55.705Z,11.23
2023-01-28T04:02:23.969Z,11.37
2023-01-28T04:04:51.319Z,11.77
2023-01-28T04:07:18.662Z,10.97
2023-01-28T04:09:45.877Z,10.43
2023-01-28T04:12:13.016Z,10.60
2023-01-28T04:14:40.267Z,10.50
2023-01-28T04:17:10.750Z,9.83
2023-01-28T04:19:41.100Z,10.40
2023-01-28T04:22:11.565Z,9.30
2023-01-28T04:24:38.596Z,9.50
2023-01-28T04:27:05.661Z,9.60
2023-01-28T04:29:32.869Z,9.80
2023-01-28T04:31:59.942Z,9.53
2023-01-28T04:34:30.053Z,8.53
2023-01-28T04:36:57.903Z,8.23
2023-01-28T04:39:25.187Z,8.07
2023-01-28T04:41:52.328Z,8.83
2023-01-28T04:44:19.517Z,8.20
2023-01-28T04:46:46.685Z,8.30
2023-01-28T04:49:13.746Z,8.03
2023-01-28T04:51:40.908Z,7.73
2023-01-28T04:54:08.193Z,8.00
2023-01-28T04:56:35.233Z,7.27
2023-01-28T04:59:02.853Z,7.70
2023-01-28T05:01:30.293Z,8.00
2023-01-28T05:03:57.977Z,6.47
2023-01-28T05:06:25.234Z,6.80
2023-01-28T05:08:52.498Z,6.93
2023-01-28T05:11:19.527Z,6.80
2023-01-28T05:13:46.696Z,7.23
2023-01-28T05:16:13.960Z,7.17
2023-01-28T05:18:43.764Z,6.67
2023-01-28T05:21:11.963Z,7.83
2023-01-28T05:23:39.145Z,7.50
2023-01-28T05:26:06.493Z,6.93
2023-01-28T05:28:33.783Z,7.70
2023-01-28T05:31:07.473Z,7.43
2023-01-28T05:33:34.679Z,6.87
2023-01-28T05:36:02.094Z,6.63
2023-01-28T05:38:29.179Z,7.07
2023-01-28T05:40:56.323Z,7.43
2023-01-28T05:43:23.435Z,7.93
2023-01-28T05:45:50.581Z,7.93
2023-01-28T05:48:17.837Z,7.17
2023-01-28T05:50:48.001Z,7.87
2023-01-28T05:53:15.174Z,7.17
2023-01-28T05:55:42.269Z,8.47
2023-01-28T05:58:09.411Z,7.77
2023-01-28T06:00:36.706Z,7.07
2023-01-28T06:03:03.940Z,9.07
2023-01-28T06:05:31.216Z,8.50
2023-01-28T06:07:58.379Z,9.50
2023-01-28T06:10:25.641Z,8.63
2023-01-28T06:12:52.688Z,8.87
2023-01-28T06:15:19.857Z,9.10
2023-01-28T06:17:47.052Z,9.23
2023-01-28T06:20:14.423Z,8.60
2023-01-28T06:22:42.050Z,9.47
2023-01-28T06:25:09.789Z,9.17
2023-01-28T06:27:37.377Z,8.93
2023-01-28T06:30:05.100Z,7.97
2023-01-28T06:32:32.627Z,8.73
2023-01-28T06:34:59.892Z,8.13
2023-01-28T06:37:27.301Z,7.10
2023-01-28T06:39:54.537Z,7.47
2023-01-28T06:42:22.224Z,7.03
2023-01-28T06:44:49.427Z,7.07
2023-01-28T06:47:16.739Z,7.63
2023-01-28T06:49:43.905Z,6.87
2023-01-28T06:52:10.927Z,6.80
2023-01-28T06:54:38.122Z,7.33
2023-01-28T06:57:05.420Z,7.70
2023-01-28T06:59:32.667Z,6.93
2023-01-28T07:01:59.742Z,7.40
2023-01-28T07:04:27.024Z,6.87
2023-01-28T07:06:54.076Z,7.40
2023-01-28T07:09:21.236Z,7.40
2023-01-28T07:11:48.468Z,7.47
2023-01-28T07:14:15.723Z,7.50
2023-01-28T07:16:42.972Z,6.90
2023-01-28T07:19:10.727Z,7.60
2023-01-28T07:21:38.072Z,7.30
2023-01-28T07:24:06.249Z,7.60
2023-01-28T07:26:33.516Z,7.43
2023-01-28T07:29:00.621Z,7.80
2023-01-28T07:31:27.849Z,8.03
2023-01-28T07:33:55.238Z,6.93
2023-01-28T07:36:22.415Z,7.30
2023-01-28T07:38:49.615Z,7.30
2023-01-28T07:41:16.944Z,7.67
2023-01-28T07:43:44.340Z,8.60
2023-01-28T07:46:11.654Z,8.10
2023-01-28T07:48:38.670Z,9.27
2023-01-28T07:51:05.913Z,8.33
2023-01-28T07:53:33.016Z,8.37
2023-01-28T07:56:01.912Z,8.20
2023-01-28T07:58:29.314Z,8.40
2023-01-28T08:00:59.138Z,8.13
2023-01-28T08:03:27.447Z,8.13
2023-01-28T08:05:56.617Z,8.43
2023-01-28T08:08:25.713Z,8.50
2023-01-28T08:10:53.742Z,7.63
2023-01-28T08:13:20.780Z,8.17
2023-01-28T08:15:48.128Z,8.33
2023-01-28T08:18:16.841Z,8.20
2023-01-28T08:20:47.336Z,9.27
2023-01-28T08:23:19.629Z,8.30
2023-01-28T08:25:47.396Z,8.30
2023-01-28T08:28:16.834Z,7.90
2023-01-28T08:30:44.608Z,8.57
2023-01-28T08:33:15.020Z,8.60
2023-01-28T08:35:42.496Z,8.43
2023-01-28T08:38:16.661Z,8.63
2023-01-28T08:40:43.862Z,9.30
2023-01-28T08:43:11.231Z,8.33
2023-01-28T08:45:40.491Z,8.47
2023-01-28T08:48:11.266Z,8.33
2023-01-28T08:50:40.181Z,8.43
2023-01-28T08:53:17.661Z,8.87
2023-01-28T08:55:46.398Z,9.07
2023-01-28T08:58:16.821Z,9.33
2023-01-28T09:00:47.177Z,8.73
2023-01-28T09:03:14.514Z,8.53
2023-01-28T09:05:41.771Z,8.90
2023-01-28T09:08:15.007Z,8.73
2023-01-28T09:10:42.478Z,9.07
2023-01-28T09:13:15.807Z,8.43
2023-01-28T09:15:43.470Z,9.03
2023-01-28T09:18:11.460Z,8.80
2023-01-28T09:20:39.230Z,9.23
2023-01-28T09:23:06.798Z,7.90
2023-01-28T09:25:36.419Z,7.80
2023-01-28T09:28:04.820Z,8.33
2023-01-28T09:30:34.859Z,9.43
2023-01-28T09:33:03.350Z,8.43
2023-01-28T09:35:30.667Z,8.13
2023-01-28T09:37:59.194Z,8.60
2023-01-28T09:40:41.003Z,8.20
2023-01-28T09:43:34.983Z,8.17
2023-01-28T09:46:06.464Z,9.27
2023-01-28T09:48:43.300Z,8.87
2023-01-28T09:51:32.277Z,8.53
2023-01-28T09:54:11.382Z,8.63
2023-01-28T09:56:46.484Z,8.20
2023-01-28T09:59:22.683Z,8.93
2023-01-28T10:02:01.560Z,9.97
2023-01-28T10:04:54.657Z,9.17
2023-01-28T10:07:50.258Z,9.27
2023-01-28T10:10:27.692Z,9.00
2023-01-28T10:13:24.844Z,9.57
2023-01-28T10:16:10.098Z,8.30
2023-01-28T10:18:51.043Z,7.87
2023-01-28T10:21:39.180Z,9.43
2023-01-28T10:24:21.541Z,9.40
2023-01-28T10:26:48.929Z,9.10
2023-01-28T10:29:24.489Z,9.00
2023-01-28T10:32:02.769Z,8.53
2023-01-28T10:34:29.874Z,8.37
2023-01-28T10:36:58.744Z,8.23
2023-01-28T10:39:28.670Z,9.57
2023-01-28T10:41:58.737Z,10.20
2023-01-28T10:44:38.900Z,9.33
2023-01-28T10:47:29.886Z,9.77
2023-01-28T10:50:02.362Z,8.63
2023-01-28T10:52:29.605Z,8.73
2023-01-28T10:55:06.029Z,9.73
2023-01-28T10:57:42.982Z,10.67
2023-01-28T11:00:25.921Z,9.53
2023-01-28T11:02:55.069Z,10.37
2023-01-28T11:05:29.219Z,9.73
2023-01-28T11:08:07.182Z,10.30
2023-01-28T11:10:40.569Z,10.07
2023-01-28T11:13:29.479Z,10.13
2023-01-28T11:16:03.087Z,9.93
2023-01-28T11:19:00.993Z,9.37
2023-01-28T11:21:32.220Z,9.10
2023-01-28T11:24:14.202Z,9.83
2023-01-28T11:26:49.430Z,9.27
2023-01-28T11:29:43.503Z,9.33
2023-01-28T11:32:22.415Z,7.87
2023-01-28T11:34:52.907Z,9.20
2023-01-28T11:37:22.995Z,8.87
2023-01-28T11:40:21.518Z,8.23
2023-01-28T11:42:52.395Z,8.30
2023-01-28T11:45:53.055Z,9.33
2023-01-28T11:48:52.873Z,9.23
2023-01-28T11:51:45.901Z,9.47
2023-01-28T11:54:12.854Z,8.90
2023-01-28T11:56:50.311Z,9.10
2023-01-28T11:59:44.392Z,9.43
2023-01-28T12:03:04.167Z,8.60
2023-01-28T12:05:34.062Z,9.50
2023-01-28T12:08:06.874Z,9.33
2023-01-28T12:10:58.431Z,9.57
2023-01-28T12:13:34.454Z,9.20
2023-01-28T12:16:26.621Z,9.93
2023-01-28T12:19:33.576Z,9.77
2023-01-28T12:22:34.673Z,9.20
2023-01-28T12:25:54.167Z,8.97
2023-01-28T12:28:36.174Z,8.97
2023-01-28T12:31:47.133Z,9.00
2023-01-28T12:34:44.541Z,8.77
2023-01-28T12:37:50.349Z,9.37
2023-01-28T12:40:43.289Z,8.80
2023-01-28T12:43:44.912Z,8.93
2023-01-28T12:46:37.085Z,8.77
2023-01-28T12:49:27.561Z,8.20
2023-01-28T12:52:11.075Z,9.07
2023-01-28T12:54:49.840Z,8.93
2023-01-28T12:57:27.289Z,9.33
2023-01-28T13:00:27.381Z,9.40
2023-01-28T13:03:35.470Z,9.37
2023-01-28T13:06:18.493Z,8.73
2023-01-28T13:08:45.497Z,9.10
2023-01-28T13:11:17.871Z,8.50
2023-01-28T13:13:46.634Z,8.97
2023-01-28T13:16:14.579Z,8.53
2023-01-28T13:18:46.761Z,9.27
2023-01-28T13:21:25.837Z,8.53
2023-01-28T13:24:19.203Z,8.93
2023-01-28T13:26:57.418Z,8.37
2023-01-28T13:29:24.263Z,8.90
2023-01-28T13:32:01.721Z,8.93
2023-01-28T13:34:40.857Z,9.17
2023-01-28T13:37:32.403Z,8.83
2023-01-28T13:40:21.825Z,8.67
2023-01-28T13:43:06.617Z,8.23
2023-01-28T13:45:34.482Z,8.83
2023-01-28T13:48:23.133Z,7.97
2023-01-28T13:50:54.368Z,7.50
2023-01-28T13:53:37.011Z,7.37
2023-01-28T13:56:17.841Z,6.80
2023-01-28T13:59:32.550Z,7.37
2023-01-28T14:02:21.189Z,6.60
2023-01-28T14:05:15.581Z,6.20
2023-01-28T14:08:22.192Z,6.73
2023-01-28T14:11:45.409Z,6.20
2023-01-28T14:14:37.813Z,6.17
2023-01-28T14:17:51.053Z,5.83
2023-01-28T14:20:27.451Z,6.73
2023-01-28T14:23:02.586Z,6.40
2023-01-28T14:25:55.619Z,6.87
2023-01-28T14:29:00.072Z,7.70
2023-01-28T14:31:37.743Z,7.60
2023-01-28T14:34:13.840Z,7.50
2023-01-28T14:36:44.339Z,7.23
2023-01-28T14:39:28.776Z,7.50
2023-01-28T14:42:02.975Z,6.57
2023-01-28T14:44:32.808Z,7.50
2023-01-28T14:47:18.126Z,7.50
2023-01-28T14:50:23.913Z,6.77
2023-01-28T14:53:41.991Z,6.93
2023-01-28T14:56:36.718Z,6.43
2023-01-28T14:59:32.700Z,6.60
2023-01-28T15:02:00.517Z,6.77
2023-01-28T15:04:34.000Z,6.43
2023-01-28T15:07:31.373Z,6.77
2023-01-28T15:10:08.234Z,7.03
2023-01-28T15:12:42.859Z,6.90
2023-01-28T15:15:28.596Z,7.07
2023-01-28T15:18:21.407Z,7.23
2023-01-28T15:20:53.205Z,7.23
2023-01-28T15:23:36.777Z,7.47
2023-01-28T15:26:27.416Z,6.77
2023-01-28T15:28:56.101Z,6.83
2023-01-28T15:31:28.851Z,7.47
2023-01-28T15:34:16.564Z,6.80
2023-01-28T15:36:43.965Z,7.10
2023-01-28T15:39:20.998Z,7.00
2023-01-28T15:42:02.197Z,7.93
2023-01-28T15:44:47.041Z,7.50
2023-01-28T15:47:35.390Z,7.33
2023-01-28T15:50:08.402Z,7.37
2023-01-28T15:52:42.141Z,8.17
2023-01-28T15:55:31.032Z,8.03
2023-01-28T15:58:08.578Z,7.33
2023-01-28T16:00:36.158Z,7.97
2023-01-28T16:03:09.812Z,8.53
2023-01-28T16:05:53.674Z,7.90
2023-01-28T16:08:39.393Z,7.43
2023-01-28T16:11:09.619Z,9.10
2023-01-28T16:13:43.884Z,8.47
2023-01-28T16:16:12.316Z,8.73
2023-01-28T16:18:51.869Z,8.30
2023-01-28T16:21:34.581Z,7.87
2023-01-28T16:24:30.214Z,7.90
2023-01-28T16:27:02.871Z,8.40
2023-01-28T16:29:31.414Z,7.43
2023-01-28T16:32:00.120Z,9.17
2023-01-28T16:34:27.964Z,12.83
2023-01-28T16:37:02.220Z,9.77
2023-01-28T16:39:30.327Z,10.23
2023-01-28T16:41:58.434Z,9.77
2023-01-28T16:44:25.628Z,10.50
2023-01-28T16:46:52.812Z,10.33
2023-01-28T16:49:19.885Z,10.13
2023-01-28T16:51:47.040Z,10.17
2023-01-28T16:54:16.613Z,10.03
2023-01-28T16:56:46.253Z,9.33
2023-01-28T16:59:16.322Z,10.70
2023-01-28T17:01:45.338Z,9.53
2023-01-28T17:04:13.525Z,9.50
2023-01-28T17:06:45.178Z,10.13
2023-01-28T17:09:14.513Z,10.50
2023-01-28T17:11:41.975Z,9.83
2023-01-28T17:14:11.343Z,8.70
2023-01-28T17:16:39.070Z,9.70
2023-01-28T17:19:06.731Z,10.00
2023-01-28T17:21:34.057Z,9.73
2023-01-28T17:24:01.995Z,10.03
2023-01-28T17:26:29.221Z,11.40
2023-01-28T17:28:56.393Z,11.60
2023-01-28T17:31:26.606Z,11.33
2023-01-28T17:33:58.959Z,11.00
2023-01-28T17:36:27.743Z,12.47
2023-01-28T17:38:55.478Z,11.50
2023-01-28T17:41:22.901Z,10.63
2023-01-28T17:43:55.055Z,12.00
2023-01-28T17:46:24.853Z,11.53
2023-01-28T17:48:52.203Z,11.57
2023-01-28T17:51:20.727Z,12.03
2023-01-28T17:53:50.565Z,12.17
2023-01-28T17:56:23.687Z,16.47
2023-01-28T17:58:53.486Z,19.20
2023-01-28T18:01:22.514Z,18.90
2023-01-28T18:03:50.076Z,16.53
2023-01-28T18:06:17.270Z,17.80
2023-01-28T18:08:44.624Z,14.53
2023-01-28T18:11:15.693Z,14.43
2023-01-28T18:13:43.605Z,15.30
2023-01-28T18:16:16.036Z,16.07
2023-01-28T18:18:43.168Z,15.67
2023-01-28T18:21:42.897Z,16.43
2023-01-28T18:24:13.887Z,15.63
2023-01-28T18:26:41.267Z,15.80
2023-01-28T18:29:08.393Z,18.33
2023-01-28T18:31:35.605Z,17.50
2023-01-28T18:34:03.561Z,18.50
2023-01-28T18:36:30.841Z,17.77
2023-01-28T18:38:57.876Z,16.90
2023-01-28T18:41:24.891Z,18.03
2023-01-28T18:43:51.895Z,21.20
2023-01-28T18:46:19.482Z,45.27
2023-01-28T18:48:46.511Z,27.80
2023-01-28T18:51:28.968Z,29.87
2023-01-28T18:54:03.967Z,29.33
2023-01-28T18:56:32.291Z,24.50
2023-01-28T18:59:02.761Z,24.07
2023-01-28T19:01:31.968Z,22.10
2023-01-28T19:03:59.995Z,24.10
2023-01-28T19:06:30.210Z,24.90
2023-01-28T19:09:02.355Z,26.60
2023-01-28T19:11:30.935Z,26.53
2023-01-28T19:13:58.166Z,26.77
2023-01-28T19:16:25.799Z,27.87
2023-01-28T19:19:00.005Z,31.07
2023-01-28T19:21:29.488Z,31.40
2023-01-28T19:24:07.075Z,26.43
2023-01-28T19:26:34.539Z,24.87
2023-01-28T19:29:04.680Z,25.80
2023-01-28T19:31:31.794Z,24.07
2023-01-28T19:34:00.561Z,25.43
2023-01-28T19:36:31.462Z,26.87
2023-01-28T19:39:01.168Z,26.23
2023-01-28T19:41:29.677Z,25.60
2023-01-28T19:43:57.924Z,24.43
2023-01-28T19:46:25.507Z,24.53
2023-01-28T19:48:52.809Z,24.53
2023-01-28T19:51:20.698Z,27.17
2023-01-28T19:53:52.046Z,28.83
2023-01-28T19:56:20.601Z,28.83
2023-01-28T19:58:48.020Z,26.27
2023-01-28T20:01:22.434Z,27.17
2023-01-28T20:03:59.293Z,26.53
2023-01-28T20:06:30.059Z,27.33
2023-01-28T20:09:19.759Z,26.90
2023-01-28T20:11:47.171Z,26.33
2023-01-28T20:14:16.151Z,27.53
2023-01-28T20:16:43.530Z,27.57
2023-01-28T20:19:17.841Z,31.17
2023-01-28T20:21:45.937Z,33.63
2023-01-28T20:24:14.906Z,31.47
2023-01-28T20:26:44.109Z,31.87
2023-01-28T20:29:22.378Z,30.40
2023-01-28T20:32:08.902Z,30.00
2023-01-28T20:34:45.984Z,30.47
2023-01-28T20:37:13.388Z,32.37
2023-01-28T20:39:40.479Z,31.93
2023-01-28T20:42:09.458Z,28.40
2023-01-28T20:44:36.959Z,31.00
2023-01-28T20:47:04.067Z,30.57
2023-01-28T20:49:31.329Z,28.77
2023-01-28T20:51:58.890Z,28.70
2023-01-28T20:54:26.299Z,27.63
2023-01-28T20:56:53.874Z,27.80
2023-01-28T20:59:21.354Z,28.47
2023-01-28T21:01:48.627Z,26.50
2023-01-28T21:04:17.150Z,27.77
2023-01-28T21:06:44.113Z,27.00
2023-01-28T21:09:11.323Z,26.73
2023-01-28T21:11:38.707Z,26.13
2023-01-28T21:14:06.224Z,26.90
2023-01-28T21:16:33.381Z,28.63
2023-01-28T21:19:00.783Z,29.90
2023-01-28T21:21:29.245Z,31.17
2023-01-28T21:24:00.569Z,31.80
2023-01-28T21:26:28.593Z,32.10
2023-01-28T21:28:58.387Z,31.13
2023-01-28T21:31:26.926Z,32.77
2023-01-28T21:33:58.374Z,31.37
2023-01-28T21:36:26.735Z,32.80
2023-01-28T21:38:57.574Z,31.13
2023-01-28T21:41:25.502Z,28.27
2023-01-28T21:43:54.400Z,32.80
2023-01-28T21:46:27.244Z,36.70
2023-01-28T21:49:00.657Z,31.00
2023-01-28T21:51:46.424Z,29.43
2023-01-28T21:54:19.412Z,28.90
2023-01-28T21:56:49.546Z,27.90
2023-01-28T21:59:30.773Z,27.10
2023-01-28T22:02:01.523Z,28.47
2023-01-28T22:04:35.022Z,28.53
2023-01-28T22:07:04.067Z,28.70
2023-01-28T22:09:33.416Z,26.57
2023-01-28T22:12:03.689Z,26.97
2023-01-28T22:14:31.128Z,27.57
2023-01-28T22:16:58.579Z,26.13
2023-01-28T22:19:26.168Z,27.13
2023-01-28T22:21:53.160Z,26.77
2023-01-28T22:24:24.374Z,26.67
2023-01-28T22:26:53.485Z,27.10
2023-01-28T22:29:22.731Z,27.00
2023-01-28T22:31:52.773Z,26.53
2023-01-28T22:34:22.353Z,27.50
2023-01-28T22:36:51.125Z,26.90
2023-01-28T22:39:18.883Z,27.20
2023-01-28T22:41:46.878Z,26.77
2023-01-28T22:44:14.516Z,26.50
2023-01-28T22:46:42.138Z,28.43
2023-01-28T22:49:12.048Z,27.00
2023-01-28T22:51:39.502Z,27.73
2023-01-28T22:54:06.632Z,27.17
2023-01-28T22:56:33.850Z,27.37
2023-01-28T22:59:03.878Z,25.50
2023-01-28T23:01:32.294Z,24.87
2023-01-28T23:03:59.858Z,26.60
2023-01-28T23:06:28.523Z,26.03
2023-01-28T23:08:56.540Z,27.53
2023-01-28T23:11:25.449Z,25.83
2023-01-28T23:14:19.924Z,26.43
2023-01-28T23:17:06.631Z,26.50
2023-01-28T23:19:53.060Z,26.00
2023-01-28T23:22:47.547Z,26.07
2023-01-28T23:25:18.092Z,26.37
2023-01-28T23:27:45.777Z,25.70
2023-01-28T23:30:13.791Z,26.23
2023-01-28T23:32:47.064Z,25.00
2023-01-28T23:35:15.071Z,26.10
2023-01-28T23:37:42.254Z,24.67
2023-01-28T23:40:10.555Z,25.53
2023-01-28T23:42:37.643Z,25.73
2023-01-28T23:45:05.842Z,25.20
2023-01-28T23:47:33.501Z,27.30
2023-01-28T23:50:00.735Z,26.03
2023-01-28T23:52:27.934Z,25.67
2023-01-28T23:54:55.011Z,24.20
2023-01-28T23:57:22.138Z,26.03
2023-01-28T23:59:49.426Z,25.83
